EDXW

Westerland Sylt Airport

Westerland, Germany
METAR EDXW 240750Z 06013KT CAVOK 19/11 Q1026
Observed Flight Rules
May-24 @ 07:50 UTC (14 minutes ago) Visual Flight Rules
Wind Visibility Clouds
60° at 13 knots 10,000+ meters
  • Clear skies
Temperatures Readings
Current 19°C / 66°F
Dewpoint 11°C / 52°F
Humidity 60%
Altimeter 30.3" Hg
Pressure 1026 hPa
Elevation 20
METAR EDXW 240750Z 06013KT CAVOK 19/11 Q1026
Observed Flight Rules
May-24 @ 07:50 UTC
(14 minutes ago)
VFR
Wind Visibility
60° at 13 knots 10,000+ meters
Clouds
  • Clear skies
Temperature Dewpoint
19°C / 66°F 11°C / 52°F
Humidity Altimeter Pressure
60% 30.3" Hg 1026 hPa